Time;durP1;ratioP1;P1;durP2;ratioP2;P2;SDS_P1;SDS_P2;PMS_P1;PMS_P2;Temp;Humidity;BMP_temperature;BMP_pressure;BME280_temperature;BME280_humidity;BME280_pressure;Samples;Min_cycle;Max_cycle;Signal;HPM_P1;HPM_P2
2022/04/03 00:00:34;;;;;;;7.40;3.08;;;;;;;-0.94;85.77;102251.31;5013190;28;20042;-71
2022/04/03 00:03:00;;;;;;;4.13;2.80;;;;;;;-0.97;85.86;102251.41;5015904;28;20068;-71
2022/04/03 00:05:26;;;;;;;5.30;2.53;;;;;;;-1.04;86.33;102252.47;5014351;28;20103;-71
2022/04/03 00:07:52;;;;;;;2.53;2.03;;;;;;;-1.03;86.95;102243.78;5017042;28;20502;-71
2022/04/03 00:10:17;;;;;;;3.53;1.88;;;;;;;-1.04;86.80;102248.13;5015955;28;20120;-71
2022/04/03 00:12:46;;;;;;;3.20;2.10;;;;;;;-1.14;86.65;102230.28;5014469;28;20033;-71
2022/04/03 00:15:12;;;;;;;3.47;1.48;;;;;;;-1.08;87.23;102243.06;4999409;28;20037;-71
2022/04/03 00:17:37;;;;;;;4.90;1.55;;;;;;;-1.05;86.88;102246.41;5017562;28;20405;-71
2022/04/03 00:20:03;;;;;;;3.13;1.88;;;;;;;-0.99;86.46;102254.94;4999430;28;20022;-72
2022/04/03 00:22:28;;;;;;;3.05;1.88;;;;;;;-0.97;86.06;102248.81;5017015;28;20278;-72
2022/04/03 00:24:54;;;;;;;3.67;2.40;;;;;;;-0.96;85.68;102241.88;5016097;28;20133;-72
2022/04/03 00:27:19;;;;;;;5.18;2.63;;;;;;;-1.12;85.82;102220.72;5016147;28;20041;-72
2022/04/03 00:29:45;;;;;;;3.05;1.88;;;;;;;-1.07;86.08;102235.28;5012405;28;20081;-72
2022/04/03 00:32:10;;;;;;;6.47;2.00;;;;;;;-1.15;86.64;102228.59;5012076;28;20026;-72
2022/04/03 00:34:36;;;;;;;3.08;1.63;;;;;;;-1.12;86.78;102234.53;5014121;28;20022;-70
2022/04/03 00:37:01;;;;;;;2.45;1.70;;;;;;;-1.21;86.77;102231.34;5018588;28;20045;-72
2022/04/03 00:39:27;;;;;;;3.10;1.50;;;;;;;-1.17;87.04;102239.00;5019805;28;20033;-72
2022/04/03 00:41:53;;;;;;;2.25;1.50;;;;;;;-1.22;87.61;102229.63;5021756;28;20029;-72
2022/04/03 00:44:18;;;;;;;3.47;1.55;;;;;;;-1.20;87.13;102231.28;5018219;28;20033;-72
2022/04/03 00:46:46;;;;;;;2.53;1.80;;;;;;;-1.21;87.06;102226.16;5020197;28;20456;-71
2022/04/03 00:49:13;;;;;;;1.83;1.35;;;;;;;-1.21;87.28;102223.56;5019535;28;20033;-72
2022/04/03 00:51:38;;;;;;;3.08;1.33;;;;;;;-1.22;87.80;102227.03;5019448;28;20524;-72
2022/04/03 00:54:04;;;;;;;3.08;1.80;;;;;;;-1.21;87.58;102229.59;5021169;28;20026;-72
2022/04/03 00:56:32;;;;;;;2.90;1.67;;;;;;;-1.21;87.78;102236.53;5022571;28;20034;-72
2022/04/03 00:58:58;;;;;;;2.85;1.70;;;;;;;-1.21;87.98;102227.00;5019486;28;20025;-72
2022/04/03 01:01:23;;;;;;;1.70;1.40;;;;;;;-1.27;88.06;102222.81;5019417;28;20030;-70
2022/04/03 01:03:49;;;;;;;4.45;2.00;;;;;;;-1.28;88.67;102222.88;5002328;28;20044;-70
2022/04/03 01:06:15;;;;;;;3.95;2.00;;;;;;;-1.32;89.16;102208.31;5019388;28;20041;-70
2022/04/03 01:08:42;;;;;;;2.92;1.52;;;;;;;-1.20;89.06;102223.50;5019377;28;20537;-71
2022/04/03 01:11:08;;;;;;;2.17;1.60;;;;;;;-1.17;89.10;102223.44;5018125;28;20033;-71
2022/04/03 01:13:33;;;;;;;3.33;1.38;;;;;;;-1.14;89.07;102218.16;5017622;28;20025;-72
2022/04/03 01:15:59;;;;;;;3.60;1.40;;;;;;;-1.12;88.96;102218.13;5018464;28;20041;-70
2022/04/03 01:18:26;;;;;;;2.22;1.60;;;;;;;-1.10;88.70;102219.78;5020125;28;20026;-72
2022/04/03 01:20:52;;;;;;;2.83;1.42;;;;;;;-1.08;88.13;102219.75;5015634;28;20680;-72
2022/04/03 01:23:25;;;;;;;2.72;1.75;;;;;;;-1.11;88.75;102212.91;5020128;28;20107;-71
2022/04/03 01:25:50;;;;;;;2.45;1.58;;;;;;;-1.07;88.17;102218.84;5021532;28;20147;-71
2022/04/03 01:28:16;;;;;;;3.13;1.92;;;;;;;-1.02;89.16;102214.41;5016137;28;20502;-71
2022/04/03 01:30:41;;;;;;;2.97;1.58;;;;;;;-1.01;89.30;102213.50;5019875;28;20108;-71
2022/04/03 01:33:07;;;;;;;3.13;1.48;;;;;;;-0.95;88.91;102213.34;5019927;28;20030;-71
2022/04/03 01:35:32;;;;;;;2.40;1.52;;;;;;;-0.94;89.06;102207.25;5019242;28;20112;-71
2022/04/03 01:37:57;;;;;;;3.47;1.80;;;;;;;-0.90;89.15;102205.44;5016610;28;20509;-71
2022/04/03 01:40:23;;;;;;;5.88;2.08;;;;;;;-0.87;89.08;102206.22;5020393;28;20473;-71
2022/04/03 01:42:50;;;;;;;3.03;1.55;;;;;;;-0.86;89.08;102204.47;5019353;28;20028;-71
2022/04/03 01:45:15;;;;;;;4.57;1.63;;;;;;;-0.87;89.18;102195.84;5001106;28;20640;-71
2022/04/03 01:47:41;;;;;;;2.95;1.50;;;;;;;-0.87;89.35;102195.84;4998502;28;20037;-71
2022/04/03 01:50:07;;;;;;;2.63;1.42;;;;;;;-0.81;89.71;102194.81;5020681;28;20040;-71
2022/04/03 01:52:33;;;;;;;2.83;1.77;;;;;;;-0.71;89.97;102191.06;5019688;28;20030;-71
2022/04/03 01:54:59;;;;;;;2.42;1.50;;;;;;;-0.64;89.71;102199.50;5017518;28;20026;-71
2022/04/03 01:57:25;;;;;;;2.50;1.77;;;;;;;-0.54;89.82;102206.13;5014840;28;20029;-71
2022/04/03 01:59:52;;;;;;;2.20;1.58;;;;;;;-0.46;89.91;102195.53;5017600;28;20453;-70
2022/04/03 02:02:17;;;;;;;4.68;1.98;;;;;;;-0.38;89.99;102198.75;5019029;28;20018;-70
2022/04/03 02:04:42;;;;;;;2.28;1.50;;;;;;;-0.47;90.05;102179.13;5020482;28;20497;-70
2022/04/03 02:07:08;;;;;;;1.92;1.45;;;;;;;-0.46;90.31;102167.00;4999395;28;20180;-70
2022/04/03 02:09:34;;;;;;;3.13;1.50;;;;;;;-0.36;90.53;102163.22;5014142;28;20037;-70
2022/04/03 02:12:00;;;;;;;1.80;1.33;;;;;;;-0.13;91.24;102192.78;5001662;28;20069;-70
2022/04/03 02:14:25;;;;;;;2.05;1.33;;;;;;;-0.21;90.86;102167.09;5015939;28;20021;-70
2022/04/03 02:16:55;;;;;;;4.40;1.23;;;;;;;-0.07;89.60;102206.44;5014982;28;20117;-70
2022/04/03 02:19:21;;;;;;;1.63;1.10;;;;;;;-0.06;88.54;102218.53;5017140;28;20083;-70
2022/04/03 02:21:46;;;;;;;2.35;1.40;;;;;;;0.01;88.45;102215.75;5019611;28;20029;-70
2022/04/03 02:24:12;;;;;;;2.45;1.15;;;;;;;0.07;89.68;102224.19;5019808;28;20121;-72
2022/04/03 02:26:37;;;;;;;1.85;1.10;;;;;;;0.17;90.12;102222.13;5018365;28;20033;-70
2022/04/03 02:29:02;;;;;;;1.90;0.93;;;;;;;0.22;90.32;102225.44;5023393;28;20026;-70
2022/04/03 02:31:28;;;;;;;1.52;0.75;;;;;;;0.29;90.99;102221.75;5013087;28;20378;-70
2022/04/03 02:33:53;;;;;;;1.55;0.90;;;;;;;0.38;92.14;102218.00;5022430;28;20037;-70
2022/04/03 02:36:18;;;;;;;2.38;1.10;;;;;;;0.43;92.68;102218.69;5016760;28;20025;-71
2022/04/03 02:38:44;;;;;;;3.03;0.82;;;;;;;0.50;93.67;102212.41;5020082;28;20442;-71
2022/04/03 02:41:09;;;;;;;1.00;0.70;;;;;;;0.55;94.60;102209.66;5014967;28;20556;-70
2022/04/03 02:43:35;;;;;;;0.80;0.50;;;;;;;0.53;96.11;102204.50;5018861;28;20037;-70
2022/04/03 02:46:00;;;;;;;0.85;0.57;;;;;;;0.59;96.87;102198.25;5004843;28;20044;-70
2022/04/03 02:48:25;;;;;;;1.67;0.60;;;;;;;0.60;97.62;102200.78;5017115;28;20120;-70
2022/04/03 02:50:51;;;;;;;0.95;0.77;;;;;;;0.64;98.43;102187.69;5016898;28;20454;-71
2022/04/03 02:53:16;;;;;;;1.05;0.70;;;;;;;0.66;99.11;102191.09;5016165;28;20371;-71
2022/04/03 02:55:42;;;;;;;0.90;0.60;;;;;;;0.52;100.00;102176.84;5018201;28;20068;-71
2022/04/03 02:58:07;;;;;;;1.35;0.73;;;;;;;0.58;100.00;102183.56;5015691;28;20040;-71
2022/04/03 03:00:35;;;;;;;0.70;0.47;;;;;;;0.50;100.00;102163.03;5016274;28;20021;-71
2022/04/03 03:03:01;;;;;;;3.17;1.05;;;;;;;0.57;100.00;102174.91;5018985;28;20026;-71
2022/04/03 03:05:26;;;;;;;1.30;0.65;;;;;;;0.54;100.00;102168.97;5013814;28;20059;-71
2022/04/03 03:07:52;;;;;;;5.00;1.20;;;;;;;0.60;100.00;102181.75;5012238;28;20029;-71
2022/04/03 03:10:19;;;;;;;1.10;0.80;;;;;;;0.61;100.00;102180.88;5016119;28;20041;-71
2022/04/03 03:12:46;;;;;;;0.88;0.50;;;;;;;0.62;100.00;102174.75;5015986;28;20024;-71
2022/04/03 03:15:13;;;;;;;3.50;0.73;;;;;;;0.67;100.00;102183.22;5019453;28;20424;-71
2022/04/03 03:17:39;;;;;;;1.55;0.55;;;;;;;0.70;100.00;102170.16;5022981;28;20474;-71
2022/04/03 03:20:05;;;;;;;0.82;0.65;;;;;;;0.73;100.00;102167.44;5016487;28;20080;-71
2022/04/03 03:22:31;;;;;;;0.40;0.30;;;;;;;0.75;100.00;102162.19;5020063;28;20065;-72
2022/04/03 03:24:57;;;;;;;5.43;0.80;;;;;;;0.76;100.00;102161.25;5020970;28;20239;-72
2022/04/03 03:27:22;;;;;;;0.80;0.52;;;;;;;0.64;100.00;102144.38;5015320;28;20037;-73
2022/04/03 03:29:48;;;;;;;2.00;0.75;;;;;;;0.73;100.00;102158.78;5003815;28;20245;-72
2022/04/03 03:32:13;;;;;;;1.45;0.55;;;;;;;0.70;100.00;102154.56;5000464;28;20026;-73
2022/04/03 03:34:39;;;;;;;1.05;0.50;;;;;;;0.68;100.00;102156.34;5017130;28;20504;-74
2022/04/03 03:37:04;;;;;;;1.95;0.88;;;;;;;0.63;99.92;102155.66;5014947;28;20025;-74
2022/04/03 03:39:30;;;;;;;0.82;0.57;;;;;;;0.56;100.00;102147.22;5020939;28;20026;-74
2022/04/03 03:41:55;;;;;;;3.95;0.93;;;;;;;0.47;100.00;102142.34;5018578;28;20036;-73
2022/04/03 03:44:24;;;;;;;6.60;1.15;;;;;;;0.37;100.00;102135.78;5014936;28;20299;-73
2022/04/03 03:46:50;;;;;;;5.40;0.80;;;;;;;0.26;100.00;102137.88;5018868;28;20033;-72
2022/04/03 03:49:16;;;;;;;1.45;0.70;;;;;;;0.16;100.00;102134.75;5011383;28;20482;-73
2022/04/03 03:51:42;;;;;;;1.65;0.80;;;;;;;0.05;100.00;102135.13;5019233;28;20083;-73
2022/04/03 03:54:08;;;;;;;0.98;0.50;;;;;;;0.00;100.00;102131.84;5015309;28;20036;-72
2022/04/03 03:56:34;;;;;;;0.65;0.40;;;;;;;0.07;100.00;102142.88;5017240;28;20030;-72
2022/04/03 03:58:59;;;;;;;0.77;0.60;;;;;;;0.10;100.00;102155.72;5003644;28;20057;-74
2022/04/03 04:01:25;;;;;;;2.15;0.70;;;;;;;0.08;100.00;102134.16;5019357;28;20497;-72
2022/04/03 04:03:50;;;;;;;2.10;0.95;;;;;;;0.16;100.00;102142.56;5021024;28;20025;-72
2022/04/03 04:06:16;;;;;;;1.65;0.50;;;;;;;0.11;100.00;102123.66;5014206;28;20037;-72
2022/04/03 04:08:42;;;;;;;0.50;0.40;;;;;;;0.09;100.00;102115.13;5016960;28;20110;-72
2022/04/03 04:11:08;;;;;;;1.02;0.52;;;;;;;0.31;100.00;102152.44;5017447;28;20033;-72
2022/04/03 04:13:34;;;;;;;1.77;0.80;;;;;;;0.29;100.00;102151.63;5025842;28;20061;-72
2022/04/03 04:15:59;;;;;;;1.48;0.68;;;;;;;0.15;100.00;102135.66;5023034;28;20041;-72
2022/04/03 04:18:25;;;;;;;1.27;0.60;;;;;;;0.15;100.00;102141.72;5003675;28;20714;-72
2022/04/03 04:20:52;;;;;;;1.63;0.60;;;;;;;0.22;100.00;102163.13;5020832;28;20119;-72
2022/04/03 04:23:19;;;;;;;1.35;0.70;;;;;;;0.17;100.00;102155.50;5018944;28;20034;-72
2022/04/03 04:25:45;;;;;;;1.60;0.55;;;;;;;0.17;100.00;102150.31;5017099;28;20050;-72
2022/04/03 04:28:11;;;;;;;1.38;0.70;;;;;;;0.11;100.00;102147.91;5026455;28;20053;-72
2022/04/03 04:30:37;;;;;;;0.80;0.40;;;;;;;0.13;100.00;102153.03;5020864;28;20042;-72
2022/04/03 04:33:02;;;;;;;1.02;0.70;;;;;;;0.12;100.00;102148.75;5020526;28;20033;-72
2022/04/03 04:35:28;;;;;;;3.22;0.93;;;;;;;0.13;100.00;102146.09;5014009;28;20374;-72
2022/04/03 04:37:53;;;;;;;1.17;0.70;;;;;;;0.18;100.00;102148.56;5019862;28;20022;-72
2022/04/03 04:40:18;;;;;;;1.25;0.80;;;;;;;0.10;100.00;102135.81;5002728;28;20661;-72
2022/04/03 04:42:44;;;;;;;3.22;0.73;;;;;;;0.05;100.00;102110.91;5004104;28;20030;-72
2022/04/03 04:45:09;;;;;;;1.38;0.75;;;;;;;0.33;100.00;102149.78;5004776;28;20025;-72
2022/04/03 04:47:37;;;;;;;2.85;1.00;;;;;;;0.29;100.00;102141.25;5023655;28;20107;-72
2022/04/03 04:50:07;;;;;;;1.10;0.70;;;;;;;0.25;100.00;102136.22;5023114;28;20034;-73
2022/04/03 04:52:33;;;;;;;1.30;0.70;;;;;;;0.31;100.00;102149.84;5024392;28;20018;-73
2022/04/03 04:54:59;;;;;;;1.55;0.88;;;;;;;0.27;100.00;102147.38;5021969;28;20040;-72
2022/04/03 04:57:24;;;;;;;0.70;0.50;;;;;;;0.30;100.00;102152.47;5027059;28;20482;-73
2022/04/03 04:59:50;;;;;;;1.58;0.90;;;;;;;0.32;100.00;102148.91;5018918;28;20418;-72
2022/04/03 05:02:15;;;;;;;1.10;0.80;;;;;;;0.34;100.00;102146.28;5019737;28;20065;-73
2022/04/03 05:04:40;;;;;;;3.10;1.08;;;;;;;0.31;100.00;102146.38;5019284;28;20037;-73
2022/04/03 05:07:09;;;;;;;1.65;1.23;;;;;;;0.17;100.00;102129.53;5019818;28;20033;-73
2022/04/03 05:09:35;;;;;;;4.13;1.17;;;;;;;0.22;100.00;102144.94;5020297;28;20052;-72
2022/04/03 05:12:00;;;;;;;1.10;0.80;;;;;;;0.15;100.00;102146.91;5017376;28;20029;-72
2022/04/03 05:14:26;;;;;;;3.72;0.88;;;;;;;0.23;100.00;102157.03;5013756;28;20080;-72
2022/04/03 05:16:51;;;;;;;3.30;1.25;;;;;;;0.13;100.00;102138.31;5026797;28;20414;-72
2022/04/03 05:19:17;;;;;;;3.00;1.15;;;;;;;0.19;99.60;102147.63;5008270;28;20132;-72
2022/04/03 05:21:42;;;;;;;1.20;0.93;;;;;;;0.28;99.22;102160.31;5011681;28;20227;-72
2022/04/03 05:24:08;;;;;;;1.02;0.68;;;;;;;0.32;98.65;102161.06;5022748;28;20065;-72
2022/04/03 05:26:34;;;;;;;1.70;0.90;;;;;;;0.30;98.18;102150.72;5013686;28;20026;-72
2022/04/03 05:28:59;;;;;;;2.00;1.10;;;;;;;0.34;98.08;102147.13;4996182;28;20076;-72
2022/04/03 05:31:26;;;;;;;3.28;1.35;;;;;;;0.27;97.74;102130.06;5018635;28;20034;-72
2022/04/03 05:33:53;;;;;;;1.27;0.88;;;;;;;0.43;97.79;102135.56;5024213;28;20088;-72
2022/04/03 05:36:19;;;;;;;1.73;1.23;;;;;;;0.50;98.08;102147.47;5019840;28;20038;-72
2022/04/03 05:38:44;;;;;;;2.45;0.82;;;;;;;0.52;97.79;102142.19;5024169;28;20439;-72
2022/04/03 05:41:09;;;;;;;2.10;1.00;;;;;;;0.55;97.60;102139.50;5029530;28;20526;-71
2022/04/03 05:43:35;;;;;;;1.23;0.80;;;;;;;0.55;97.61;102139.50;5019623;28;20485;-73
2022/04/03 05:46:00;;;;;;;2.33;1.02;;;;;;;0.52;97.55;102139.59;5014695;28;20052;-72
2022/04/03 05:48:26;;;;;;;1.77;0.90;;;;;;;0.52;97.97;102139.59;5011830;28;20480;-72
2022/04/03 05:50:51;;;;;;;3.75;1.10;;;;;;;0.53;97.95;102143.91;5014429;28;20192;-72
2022/04/03 05:53:16;;;;;;;1.02;0.80;;;;;;;0.51;97.88;102137.91;5015691;28;20022;-72
2022/04/03 05:55:42;;;;;;;3.97;1.00;;;;;;;0.45;97.93;102130.31;5014382;28;20585;-73
2022/04/03 05:58:08;;;;;;;1.85;1.35;;;;;;;0.55;97.87;102145.53;5017096;28;20034;-72
2022/04/03 06:00:34;;;;;;;16.42;1.23;;;;;;;0.57;98.13;102150.69;5015147;28;20034;-72
2022/04/03 06:03:01;;;;;;;1.92;0.82;;;;;;;0.60;98.33;102158.38;5009519;28;20036;-72
2022/04/03 06:05:29;;;;;;;2.47;1.33;;;;;;;0.62;98.14;102156.56;5015754;28;20061;-73
2022/04/03 06:07:55;;;;;;;3.97;1.00;;;;;;;0.64;98.18;102154.75;5010646;28;20037;-73
2022/04/03 06:10:22;;;;;;;0.95;0.70;;;;;;;0.54;97.37;102132.59;5016359;28;20033;-73
2022/04/03 06:13:09;;;;;;;0.90;0.60;;;;;;;0.72;97.14;102163.16;5010004;28;20030;-73
2022/04/03 06:15:38;;;;;;;1.75;0.70;;;;;;;0.80;96.68;102161.09;5008155;28;20095;-73
2022/04/03 06:18:06;;;;;;;2.20;1.15;;;;;;;0.85;95.95;102160.09;5010306;28;20026;-73
2022/04/03 06:20:31;;;;;;;1.48;0.82;;;;;;;0.93;96.31;102160.66;5011271;28;20081;-72
2022/04/03 06:22:57;;;;;;;2.17;0.90;;;;;;;0.97;95.75;102159.66;5005386;28;20030;-72
2022/04/03 06:25:23;;;;;;;1.27;0.80;;;;;;;1.03;95.42;102167.25;5009082;28;20077;-72
2022/04/03 06:27:50;;;;;;;3.97;1.05;;;;;;;1.07;95.33;102171.44;5009494;28;20514;-72
2022/04/03 06:30:16;;;;;;;1.40;0.80;;;;;;;1.07;95.63;102168.81;5007225;28;20033;-72
2022/04/03 06:32:41;;;;;;;2.40;0.80;;;;;;;1.13;95.22;102167.72;5005792;28;20513;-72
2022/04/03 06:35:08;;;;;;;1.58;0.93;;;;;;;1.22;95.84;102168.25;5006127;28;20052;-72
2022/04/03 06:37:34;;;;;;;1.80;0.80;;;;;;;1.34;95.02;102160.91;5019360;28;20037;-72
2022/04/03 06:40:00;;;;;;;2.55;1.02;;;;;;;1.36;95.29;102148.69;5006532;28;20386;-72
2022/04/03 06:42:25;;;;;;;1.67;0.80;;;;;;;1.49;94.31;102168.13;5002404;28;20249;-71
2022/04/03 06:44:52;;;;;;;4.13;0.80;;;;;;;1.54;94.78;102163.56;5007246;28;20032;-71
2022/04/03 06:47:18;;;;;;;6.20;1.40;;;;;;;1.60;95.13;102157.28;5022065;28;20088;-71
2022/04/03 06:49:43;;;;;;;1.33;0.95;;;;;;;1.75;95.06;102168.88;5007012;28;20457;-71
2022/04/03 06:52:09;;;;;;;2.20;1.13;;;;;;;1.88;95.47;102167.47;5009914;28;20056;-73
2022/04/03 06:54:35;;;;;;;5.07;1.00;;;;;;;1.96;95.71;102167.13;5008954;28;20040;-72
2022/04/03 06:57:01;;;;;;;1.88;1.17;;;;;;;1.95;95.22;102158.50;5008012;28;20463;-72
2022/04/03 06:59:27;;;;;;;1.67;0.90;;;;;;;2.14;94.62;102178.59;5011907;28;20104;-73
2022/04/03 07:01:53;;;;;;;1.42;0.80;;;;;;;2.29;94.88;102167.53;5007220;28;20040;-73
2022/04/03 07:04:18;;;;;;;1.98;0.90;;;;;;;2.42;94.95;102179.13;5014929;28;20029;-72
2022/04/03 07:06:43;;;;;;;2.58;0.82;;;;;;;2.55;94.57;102176.00;4996374;28;20048;-72
2022/04/03 07:09:11;;;;;;;2.13;0.75;;;;;;;2.67;94.39;102178.06;5009193;28;20040;-72
2022/04/03 07:11:36;;;;;;;1.27;0.88;;;;;;;2.70;93.52;102156.25;5009858;28;20428;-72
2022/04/03 07:14:02;;;;;;;2.47;0.73;;;;;;;2.98;94.46;102177.56;4995702;28;20045;-72
2022/04/03 07:16:27;;;;;;;1.20;0.88;;;;;;;3.22;94.46;102170.44;5016639;28;20030;-72
2022/04/03 07:18:53;;;;;;;3.85;0.73;;;;;;;3.57;94.30;102169.69;5017518;28;20033;-72
2022/04/03 07:21:18;;;;;;;2.90;0.90;;;;;;;4.14;94.75;102175.66;5019573;28;20294;-73
2022/04/03 07:23:44;;;;;;;0.98;0.80;;;;;;;4.65;93.27;102153.03;5015329;28;20036;-73
2022/04/03 07:26:09;;;;;;;2.53;1.00;;;;;;;5.17;90.80;102167.75;5013971;28;20042;-73
2022/04/03 07:28:35;;;;;;;4.18;0.77;;;;;;;5.58;88.39;102167.28;5009478;28;20045;-73
2022/04/03 07:31:00;;;;;;;1.17;0.50;;;;;;;5.99;86.07;102156.28;5015186;28;20037;-73
2022/04/03 07:33:26;;;;;;;2.00;1.20;;;;;;;7.07;86.12;102176.94;5016086;28;20329;-73
2022/04/03 07:35:52;;;;;;;1.63;0.60;;;;;;;8.54;82.39;102178.91;5018642;28;20030;-73
2022/04/03 07:38:18;;;;;;;0.75;0.30;;;;;;;9.06;73.48;102172.69;5014248;28;20034;-73
2022/04/03 07:40:45;;;;;;;1.35;0.50;;;;;;;9.68;71.46;102177.03;5019231;28;20083;-73
2022/04/03 07:43:12;;;;;;;2.35;0.40;;;;;;;10.70;66.79;102178.25;5019330;28;20064;-72
2022/04/03 07:45:37;;;;;;;2.17;0.30;;;;;;;11.10;63.12;102180.44;5019345;28;20544;-74
2022/04/03 07:48:02;;;;;;;2.50;0.68;;;;;;;11.62;59.45;102176.28;5012712;28;20303;-74
2022/04/03 07:50:28;;;;;;;2.22;0.63;;;;;;;11.90;59.69;102188.13;5016625;28;20063;-74
2022/04/03 07:52:53;;;;;;;0.75;0.35;;;;;;;11.89;58.00;102169.75;5016977;28;20694;-74
2022/04/03 07:55:19;;;;;;;4.15;0.32;;;;;;;11.99;57.79;102193.63;5012447;28;20392;-73
2022/04/03 07:57:44;;;;;;;2.58;0.35;;;;;;;12.09;57.47;102190.09;5013397;28;20037;-74
2022/04/03 08:00:12;;;;;;;1.30;0.45;;;;;;;11.89;57.99;102175.88;5013070;28;20037;-74
2022/04/03 08:02:39;;;;;;;2.08;0.40;;;;;;;11.97;56.22;102195.56;5015759;28;20124;-74
2022/04/03 08:05:06;;;;;;;1.33;0.30;;;;;;;12.30;56.48;102176.91;5012477;28;20040;-74
2022/04/03 08:07:44;;;;;;;1.55;0.40;;;;;;;13.48;54.23;102203.00;5013502;28;20032;-73
2022/04/03 08:10:12;;;;;;;2.35;0.60;;;;;;;14.09;53.93;102195.78;5020722;28;20044;-73
2022/04/03 08:12:41;;;;;;;1.42;0.40;;;;;;;14.40;52.71;102199.97;5019194;28;20476;-73
2022/04/03 08:15:12;;;;;;;1.90;0.50;;;;;;;14.19;53.30;102189.50;5018016;28;20121;-74
2022/04/03 08:17:39;;;;;;;1.45;0.57;;;;;;;15.08;52.87;102185.66;5017678;28;20096;-74
2022/04/03 08:20:06;;;;;;;1.30;0.40;;;;;;;16.14;49.55;102203.78;5014681;28;20420;-74
2022/04/03 08:22:31;;;;;;;1.77;0.70;;;;;;;15.70;48.36;102195.66;5012101;28;20040;-74
2022/04/03 08:24:57;;;;;;;3.78;0.50;;;;;;;15.48;48.95;102197.75;4999490;28;20042;-74
2022/04/03 08:27:23;;;;;;;3.67;0.70;;;;;;;16.02;49.93;102201.34;5015783;28;20037;-75
2022/04/03 08:29:48;;;;;;;1.70;0.45;;;;;;;16.34;47.00;102199.13;5000913;28;20057;-75
2022/04/03 08:32:14;;;;;;;3.45;0.70;;;;;;;16.82;46.77;102203.94;5018624;28;20036;-74
2022/04/03 08:34:40;;;;;;;2.88;0.70;;;;;;;17.56;46.67;102211.44;5012772;28;20033;-73
2022/04/03 08:37:06;;;;;;;1.70;0.65;;;;;;;17.19;45.82;102208.13;5015253;28;20401;-74
2022/04/03 08:39:32;;;;;;;3.83;0.60;;;;;;;17.65;44.40;102205.94;5020120;28;20033;-73
2022/04/03 08:41:57;;;;;;;1.38;0.40;;;;;;;17.85;43.98;102206.50;5017014;28;20065;-74
2022/04/03 08:44:23;;;;;;;3.38;0.85;;;;;;;18.55;43.83;102202.47;5017612;28;20482;-76
2022/04/03 08:46:49;;;;;;;1.92;0.60;;;;;;;18.65;44.36;102210.34;5018708;28;20038;-74
2022/04/03 08:49:19;;;;;;;3.00;0.70;;;;;;;19.10;41.98;102201.72;5017016;28;20033;-76
2022/04/03 08:51:46;;;;;;;1.98;0.50;;;;;;;19.88;42.03;102201.78;5016349;28;20233;-75
2022/04/03 08:54:14;;;;;;;1.15;0.40;;;;;;;20.10;41.21;102202.81;5019844;28;20069;-77
2022/04/03 08:56:42;;;;;;;3.42;0.52;;;;;;;20.46;40.13;102184.22;5016749;28;20033;-76
2022/04/03 08:59:08;;;;;;;1.90;0.63;;;;;;;20.47;38.21;102204.66;5014086;28;20033;-77
2022/04/03 09:01:34;;;;;;;2.58;0.80;;;;;;;19.92;39.24;102195.06;5015408;28;20033;-75
2022/04/03 09:04:00;;;;;;;1.17;0.50;;;;;;;19.35;38.97;102208.78;5018813;28;20378;-75
2022/04/03 09:06:25;;;;;;;1.25;0.38;;;;;;;18.09;41.52;102188.81;5014648;28;20611;-76
2022/04/03 09:08:51;;;;;;;1.77;0.40;;;;;;;17.78;42.38;102201.97;5003888;28;20075;-75
2022/04/03 09:11:18;;;;;;;1.98;0.63;;;;;;;17.56;42.90;102208.78;5005342;28;20381;-76
2022/04/03 09:13:44;;;;;;;1.70;0.43;;;;;;;18.40;42.29;102186.31;5013609;28;20080;-76
2022/04/03 09:16:10;;;;;;;2.83;0.70;;;;;;;19.13;42.07;102211.22;5013928;28;20037;-74
2022/04/03 09:18:42;;;;;;;2.13;0.50;;;;;;;20.16;40.95;102204.75;5013780;28;20029;-75
2022/04/03 09:21:26;;;;;;;3.38;0.60;;;;;;;20.74;39.58;102199.72;5013993;28;20405;-75
2022/04/03 09:24:11;;;;;;;2.03;0.50;;;;;;;21.18;38.78;102204.22;5012999;28;20145;-75
2022/04/03 09:26:39;;;;;;;2.30;0.47;;;;;;;20.21;38.66;102198.84;5019105;28;20060;-75
2022/04/03 09:29:17;;;;;;;2.47;0.30;;;;;;;18.79;40.86;102215.03;5017369;28;20030;-76
2022/04/03 09:31:45;;;;;;;2.08;0.50;;;;;;;18.47;41.87;102189.16;5017752;28;20067;-76
2022/04/03 09:34:18;;;;;;;3.30;0.63;;;;;;;19.71;40.87;102209.97;5012728;28;20041;-75
2022/04/03 09:36:58;;;;;;;3.40;0.77;;;;;;;19.96;38.77;102211.63;5020150;28;20061;-76
2022/04/03 09:39:26;;;;;;;2.55;0.60;;;;;;;20.66;38.32;102202.47;5027308;28;20100;-74
2022/04/03 09:41:57;;;;;;;3.15;0.50;;;;;;;21.99;36.38;102190.66;5014302;28;20033;-76
2022/04/03 09:44:34;;;;;;;1.95;0.32;;;;;;;21.05;36.79;102193.31;5009602;28;20037;-75
2022/04/03 09:47:26;;;;;;;3.35;0.45;;;;;;;22.64;36.75;102198.63;5012008;28;20536;-75
2022/04/03 09:49:59;;;;;;;1.65;0.50;;;;;;;21.21;36.19;102206.56;5009983;28;20054;-75
2022/04/03 09:52:46;;;;;;;2.17;0.70;;;;;;;21.02;36.96;102185.66;5012841;28;20058;-76
2022/04/03 09:55:20;;;;;;;2.08;0.60;;;;;;;20.90;36.82;102201.38;5019528;28;20038;-76
2022/04/03 09:58:04;;;;;;;1.65;0.70;;;;;;;19.54;38.44;102194.97;5008742;28;20046;-76
2022/04/03 10:00:37;;;;;;;0.68;0.45;;;;;;;20.20;39.07;102200.72;5012338;28;20147;-77
2022/04/03 10:03:04;;;;;;;1.48;0.47;;;;;;;21.50;36.87;102203.00;5015860;28;20025;-76
2022/04/03 10:05:31;;;;;;;1.60;0.50;;;;;;;20.29;37.03;102201.47;5015872;28;20040;-76
2022/04/03 10:08:01;;;;;;;1.10;0.22;;;;;;;19.29;40.02;102195.13;5016698;28;20094;-76
2022/04/03 10:10:31;;;;;;;1.80;0.55;;;;;;;21.24;38.46;102187.38;5023403;28;20389;-76
2022/04/03 10:12:57;;;;;;;2.03;0.57;;;;;;;22.83;36.23;102189.03;4999327;28;20284;-76
2022/04/03 10:15:24;;;;;;;3.58;0.73;;;;;;;23.60;34.01;102174.41;5013501;28;20030;-76
2022/04/03 10:17:49;;;;;;;1.58;0.52;;;;;;;21.70;35.73;102183.56;5010378;28;20326;-75
2022/04/03 10:20:15;;;;;;;1.85;0.43;;;;;;;19.91;37.84;102170.13;5010342;28;20026;-76
2022/04/03 10:22:45;;;;;;;1.77;0.43;;;;;;;19.79;38.24;102170.72;5006253;28;20033;-76
2022/04/03 10:25:14;;;;;;;2.77;0.40;;;;;;;20.79;37.26;102183.88;5009600;28;20053;-77
2022/04/03 10:27:42;;;;;;;2.05;0.40;;;;;;;20.37;37.09;102176.44;5012795;28;20029;-76
2022/04/03 10:30:10;;;;;;;2.80;0.60;;;;;;;20.99;37.19;102170.75;5017592;28;20469;-76
2022/04/03 10:32:37;;;;;;;2.25;0.52;;;;;;;22.53;35.23;102173.94;5014084;28;20053;-76
2022/04/03 10:35:10;;;;;;;1.08;0.45;;;;;;;23.48;34.70;102184.13;5017420;28;20038;-75
2022/04/03 10:37:40;;;;;;;0.63;0.30;;;;;;;23.87;32.14;102180.69;5018551;28;20025;-76
2022/04/03 10:40:10;;;;;;;4.50;0.80;;;;;;;23.46;33.01;102183.50;5012966;28;20018;-75
2022/04/03 10:42:55;;;;;;;2.57;0.60;;;;;;;21.34;36.28;102182.53;5020994;28;20485;-76
2022/04/03 10:45:25;;;;;;;1.38;0.60;;;;;;;19.73;37.32;102191.03;5010889;28;20048;-76
2022/04/03 10:47:52;;;;;;;1.43;0.70;;;;;;;17.85;39.60;102155.75;5017417;28;20013;-78
2022/04/03 10:50:18;;;;;;;2.90;0.70;;;;;;;17.25;42.97;102172.00;5012860;28;20136;-76
2022/04/03 10:52:44;;;;;;;3.30;0.73;;;;;;;17.12;43.81;102183.09;5014400;28;20021;-80
2022/04/03 10:55:22;;;;;;;1.10;0.35;;;;;;;17.00;43.51;102176.38;5013589;28;20128;-76
2022/04/03 10:57:58;;;;;;;3.50;0.40;;;;;;;16.78;44.94;102175.91;5020253;28;20079;-76
2022/04/03 11:00:23;;;;;;;2.10;0.70;;;;;;;18.65;41.32;102176.41;5013244;28;20044;-75
2022/04/03 11:02:59;;;;;;;3.00;0.43;;;;;;;19.72;39.37;102175.97;5013869;28;20056;-75
2022/04/03 11:05:27;;;;;;;0.80;0.20;;;;;;;20.62;38.80;102169.84;5013834;28;20041;-75
2022/04/03 11:08:05;;;;;;;1.15;0.22;;;;;;;21.25;36.65;102182.81;5009789;28;20042;-76
2022/04/03 11:10:59;;;;;;;1.20;0.30;;;;;;;21.95;35.90;102179.47;5008222;28;20428;-75
2022/04/03 11:13:30;;;;;;;2.30;0.32;;;;;;;22.30;36.00;102182.28;4994481;28;20029;-75
2022/04/03 11:16:06;;;;;;;3.05;0.60;;;;;;;21.10;35.83;102181.03;5012149;28;20076;-76
2022/04/03 11:18:36;;;;;;;1.85;0.35;;;;;;;19.78;37.54;102171.75;5015760;28;20116;-76
2022/04/03 11:21:09;;;;;;;1.50;0.40;;;;;;;19.24;38.88;102178.72;5009954;28;20124;-77
2022/04/03 11:23:35;;;;;;;3.03;0.38;;;;;;;18.65;39.35;102170.22;5009290;28;20289;-79
2022/04/03 11:26:03;;;;;;;0.75;0.30;;;;;;;19.36;39.32;102172.97;5010028;28;20505;-77